Time;durP1;ratioP1;P1;durP2;ratioP2;P2;SDS_P1;SDS_P2;PMS_P1;PMS_P2;Temp;Humidity;BMP_temperature;BMP_pressure;BME280_temperature;BME280_humidity;BME280_pressure;Samples;Min_cycle;Max_cycle;Signal;HPM_P1;HPM_P2
2022/12/01 00:00:14;;;;;;;;;;;11.70;63.40;;;;;;5034419;28;19935;-88
2022/12/01 00:02:39;;;;;;;;;;;11.70;63.50;;;;;;5020512;28;19917;-88
2022/12/01 00:05:05;;;;;;;;;;;11.70;63.50;;;;;;5016171;28;19913;-90
2022/12/01 00:07:30;;;;;;;;;;;11.70;63.60;;;;;;5013934;28;20008;-90
2022/12/01 00:12:42;;;;;;;;;;;11.70;63.50;;;;;;5021673;28;19933;-90
2022/12/01 00:15:09;;;;;;;;;;;11.70;63.50;;;;;;5010733;28;19975;-87
2022/12/01 00:17:34;;;;;;;;;;;11.70;63.30;;;;;;5033072;28;20068;-87
2022/12/01 00:20:00;;;;;;;;;;;11.70;63.40;;;;;;5014354;28;20407;-87
2022/12/01 00:22:25;;;;;;;;;;;11.70;63.40;;;;;;5013699;28;20345;-88
2022/12/01 00:24:51;;;;;;;;;;;11.70;63.40;;;;;;5016215;28;19983;-89
2022/12/01 00:27:16;;;;;;;;;;;11.70;63.30;;;;;;5031115;28;20229;-89
2022/12/01 00:29:43;;;;;;;;;;;11.70;63.40;;;;;;5031090;28;19913;-86
2022/12/01 00:32:08;;;;;;;;;;;11.70;63.40;;;;;;5012922;28;20277;-86
2022/12/01 00:34:34;;;;;;;;;;;11.70;63.40;;;;;;5013488;28;19941;-89
2022/12/01 00:36:59;;;;;;;;;;;11.70;63.30;;;;;;5009616;28;19945;-89
2022/12/01 00:39:25;;;;;;;;;;;11.70;63.40;;;;;;5008826;28;19999;-89
2022/12/01 00:41:50;;;;;;;;;;;11.70;63.30;;;;;;5012996;28;19929;-86
2022/12/01 00:44:16;;;;;;;;;;;11.70;63.30;;;;;;5031588;28;19941;-89
2022/12/01 00:46:41;;;;;;;;;;;11.70;63.20;;;;;;5020246;28;20278;-86
2022/12/01 00:49:13;;;;;;;;;;;11.70;63.40;;;;;;5013450;28;19967;-87
2022/12/01 00:51:38;;;;;;;;;;;11.70;63.50;;;;;;5012759;28;19936;-89
2022/12/01 00:54:03;;;;;;;;;;;11.80;63.40;;;;;;5013003;28;19917;-88
2022/12/01 00:56:29;;;;;;;;;;;11.80;63.50;;;;;;5012875;28;20275;-91
2022/12/01 00:58:54;;;;;;;;;;;11.80;63.40;;;;;;5031001;28;20027;-89
2022/12/01 01:01:20;;;;;;;;;;;11.80;63.30;;;;;;5012941;28;19917;-91
2022/12/01 01:03:46;;;;;;;;;;;11.80;63.10;;;;;;5013027;28;19936;-88
2022/12/01 01:06:12;;;;;;;;;;;11.80;63.00;;;;;;5030713;28;19919;-87
2022/12/01 01:08:37;;;;;;;;;;;11.80;62.90;;;;;;5013516;28;19917;-89
2022/12/01 01:11:04;;;;;;;;;;;11.70;62.90;;;;;;5029538;28;19913;-89
2022/12/01 01:13:30;;;;;;;;;;;11.70;63.00;;;;;;5009803;28;20024;-89
2022/12/01 01:15:59;;;;;;;;;;;11.70;63.10;;;;;;4998342;28;20008;-86
2022/12/01 01:18:25;;;;;;;;;;;11.70;63.20;;;;;;4995962;28;19940;-90
2022/12/01 01:20:55;;;;;;;;;;;11.70;63.30;;;;;;5014150;28;20089;-88
2022/12/01 01:23:21;;;;;;;;;;;11.70;63.20;;;;;;5012892;28;20364;-87
2022/12/01 01:25:46;;;;;;;;;;;11.70;63.00;;;;;;5013298;28;19917;-86
2022/12/01 01:28:12;;;;;;;;;;;11.70;63.20;;;;;;5030867;28;20364;-86
2022/12/01 01:30:40;;;;;;;;;;;11.70;63.20;;;;;;5007196;28;20004;-90
2022/12/01 01:33:06;;;;;;;;;;;11.70;63.10;;;;;;4992183;28;19921;-90
2022/12/01 01:35:31;;;;;;;;;;;11.70;62.90;;;;;;5032574;28;19913;-87
2022/12/01 01:37:57;;;;;;;;;;;11.60;63.00;;;;;;5032747;28;20015;-86
2022/12/01 01:40:22;;;;;;;;;;;11.70;63.20;;;;;;5049116;28;20088;-90
2022/12/01 01:42:48;;;;;;;;;;;11.60;63.30;;;;;;5030284;28;19959;-87
2022/12/01 01:45:22;;;;;;;;;;;11.60;63.20;;;;;;5030636;28;19999;-87
2022/12/01 01:47:48;;;;;;;;;;;11.60;63.20;;;;;;5012635;28;20070;-87
2022/12/01 01:50:15;;;;;;;;;;;11.60;63.20;;;;;;5012446;28;19909;-87
2022/12/01 01:52:43;;;;;;;;;;;11.50;63.20;;;;;;5009128;28;19977;-90
2022/12/01 01:55:09;;;;;;;;;;;11.50;63.20;;;;;;5027882;28;20327;-88
2022/12/01 01:57:35;;;;;;;;;;;11.50;63.30;;;;;;5012922;28;19913;-90
2022/12/01 02:00:06;;;;;;;;;;;11.50;63.30;;;;;;5000520;28;19913;-90
2022/12/01 02:02:39;;;;;;;;;;;11.50;63.20;;;;;;4993244;28;20092;-87
2022/12/01 02:05:09;;;;;;;;;;;11.50;63.20;;;;;;4993834;28;20069;-89
2022/12/01 02:07:36;;;;;;;;;;;11.50;63.30;;;;;;4993291;28;20012;-87
2022/12/01 02:10:05;;;;;;;;;;;11.50;63.50;;;;;;4992913;28;19948;-89
2022/12/01 02:12:53;;;;;;;;;;;11.50;63.40;;;;;;5016563;28;20435;-87
2022/12/01 02:15:43;;;;;;;;;;;11.50;63.30;;;;;;5028645;28;20269;-89
2022/12/01 02:18:09;;;;;;;;;;;11.50;63.20;;;;;;5012605;28;20027;-90
2022/12/01 02:20:34;;;;;;;;;;;11.40;63.30;;;;;;5033628;28;19953;-87
2022/12/01 02:23:00;;;;;;;;;;;11.40;63.50;;;;;;5029985;28;19936;-87
2022/12/01 02:25:35;;;;;;;;;;;11.50;63.40;;;;;;5012238;28;19913;-90
2022/12/01 02:28:19;;;;;;;;;;;11.50;63.30;;;;;;5031729;28;19936;-88
2022/12/01 02:30:47;;;;;;;;;;;11.40;63.10;;;;;;5017745;28;19913;-87
2022/12/01 02:33:13;;;;;;;;;;;11.40;63.10;;;;;;5017984;28;19925;-89
2022/12/01 02:35:39;;;;;;;;;;;11.40;63.30;;;;;;5021392;28;19912;-86
2022/12/01 02:38:13;;;;;;;;;;;11.40;63.30;;;;;;5035843;28;19920;-88
2022/12/01 02:40:39;;;;;;;;;;;11.40;63.40;;;;;;5054080;28;19912;-89
2022/12/01 02:43:23;;;;;;;;;;;11.40;63.20;;;;;;5036190;28;19920;-86
2022/12/01 02:45:53;;;;;;;;;;;11.30;63.20;;;;;;5039501;28;19917;-89
2022/12/01 02:48:31;;;;;;;;;;;11.30;63.50;;;;;;5015922;28;19920;-88
2022/12/01 02:50:59;;;;;;;;;;;11.40;63.20;;;;;;5033603;28;19917;-90
2022/12/01 02:53:25;;;;;;;;;;;11.40;63.30;;;;;;5032433;28;19932;-89
2022/12/01 02:55:52;;;;;;;;;;;11.40;63.20;;;;;;5015362;28;20281;-89
2022/12/01 02:58:17;;;;;;;;;;;11.30;63.20;;;;;;5014574;28;19964;-87
2022/12/01 03:00:52;;;;;;;;;;;11.30;63.20;;;;;;5032481;28;19936;-86
2022/12/01 03:03:25;;;;;;;;;;;11.30;63.20;;;;;;5033526;28;20272;-86
2022/12/01 03:05:54;;;;;;;;;;;11.30;63.30;;;;;;5014773;28;19924;-86
2022/12/01 03:08:36;;;;;;;;;;;11.30;63.40;;;;;;5031709;28;20431;-89
2022/12/01 03:11:02;;;;;;;;;;;11.40;63.40;;;;;;5014689;28;19936;-87
2022/12/01 03:13:38;;;;;;;;;;;11.40;63.40;;;;;;5021982;28;20144;-89
2022/12/01 03:16:25;;;;;;;;;;;11.40;63.50;;;;;;5014507;28;19913;-90
2022/12/01 03:18:56;;;;;;;;;;;11.30;63.50;;;;;;5014999;28;19999;-89
2022/12/01 03:21:34;;;;;;;;;;;11.30;63.50;;;;;;5014434;28;19917;-90
2022/12/01 03:24:19;;;;;;;;;;;11.30;63.50;;;;;;5014484;28;20391;-87
2022/12/01 03:26:45;;;;;;;;;;;11.30;63.40;;;;;;5032242;28;19918;-89
2022/12/01 03:29:20;;;;;;;;;;;11.40;63.40;;;;;;5020267;28;20000;-90
2022/12/01 03:31:54;;;;;;;;;;;11.40;63.50;;;;;;5014597;28;19932;-88
2022/12/01 03:34:25;;;;;;;;;;;11.40;63.50;;;;;;5006123;28;19964;-87
2022/12/01 03:37:00;;;;;;;;;;;11.40;63.50;;;;;;5014407;28;20360;-90
2022/12/01 03:39:27;;;;;;;;;;;11.40;63.40;;;;;;5013457;28;19920;-88
2022/12/01 03:41:58;;;;;;;;;;;11.40;63.20;;;;;;5014498;28;19928;-87
2022/12/01 03:44:26;;;;;;;;;;;11.40;63.20;;;;;;5014198;28;21310;-90
2022/12/01 03:46:54;;;;;;;;;;;11.40;63.40;;;;;;5014265;28;20335;-87
2022/12/01 03:49:21;;;;;;;;;;;11.40;63.30;;;;;;5014178;28;19925;-89
2022/12/01 03:51:56;;;;;;;;;;;11.50;63.30;;;;;;5015719;28;20300;-89
2022/12/01 03:54:35;;;;;;;;;;;11.50;63.40;;;;;;5013717;28;19921;-87
2022/12/01 03:57:10;;;;;;;;;;;11.50;63.30;;;;;;5013631;28;20508;-88
2022/12/01 03:59:37;;;;;;;;;;;11.50;63.10;;;;;;5018873;28;20234;-89
2022/12/01 04:02:04;;;;;;;;;;;11.50;63.00;;;;;;5032244;28;20012;-90
2022/12/01 04:04:30;;;;;;;;;;;11.50;63.20;;;;;;5031620;28;19913;-87
2022/12/01 04:06:55;;;;;;;;;;;11.50;63.00;;;;;;5015139;28;20015;-87
2022/12/01 04:09:21;;;;;;;;;;;11.50;63.20;;;;;;5013507;28;19917;-86
2022/12/01 04:14:30;;;;;;;;;;;11.50;62.90;;;;;;5048870;28;20015;-86
2022/12/01 04:16:56;;;;;;;;;;;11.50;63.00;;;;;;5032015;28;19956;-89
2022/12/01 04:19:22;;;;;;;;;;;11.50;63.10;;;;;;5013765;28;19919;-89
2022/12/01 04:21:47;;;;;;;;;;;11.50;63.00;;;;;;5011775;28;19952;-90
2022/12/01 04:24:13;;;;;;;;;;;11.50;63.00;;;;;;5014930;28;19910;-86
2022/12/01 04:26:38;;;;;;;;;;;11.50;63.00;;;;;;5014558;28;19919;-88
2022/12/01 04:29:05;;;;;;;;;;;11.50;63.00;;;;;;5012743;28;19913;-89
2022/12/01 04:31:31;;;;;;;;;;;11.50;62.80;;;;;;5013565;28;19932;-89
2022/12/01 04:33:57;;;;;;;;;;;11.50;62.80;;;;;;5021460;28;19917;-90
2022/12/01 04:36:23;;;;;;;;;;;11.50;62.90;;;;;;5018433;28;19956;-87
2022/12/01 04:38:49;;;;;;;;;;;11.50;62.90;;;;;;5013844;28;20330;-87
2022/12/01 04:41:14;;;;;;;;;;;11.50;62.80;;;;;;5031793;28;19980;-87
2022/12/01 04:43:40;;;;;;;;;;;11.50;62.70;;;;;;5013933;28;20479;-90
2022/12/01 04:46:06;;;;;;;;;;;11.40;62.90;;;;;;5033050;28;19913;-87
2022/12/01 04:48:33;;;;;;;;;;;11.40;63.00;;;;;;5031598;28;19987;-88
2022/12/01 04:50:58;;;;;;;;;;;11.40;63.00;;;;;;5029371;28;20001;-89
2022/12/01 04:53:24;;;;;;;;;;;11.40;63.00;;;;;;5030586;28;20043;-90
2022/12/01 04:55:50;;;;;;;;;;;11.40;62.80;;;;;;5013470;28;19959;-90
2022/12/01 04:58:15;;;;;;;;;;;11.40;62.80;;;;;;5031896;28;19913;-87
2022/12/01 05:00:41;;;;;;;;;;;11.40;62.80;;;;;;5032424;28;20312;-88
2022/12/01 05:03:06;;;;;;;;;;;11.40;62.80;;;;;;5013462;28;20271;-87
2022/12/01 05:05:32;;;;;;;;;;;11.40;62.90;;;;;;5015134;28;19917;-89
2022/12/01 05:07:58;;;;;;;;;;;11.40;62.90;;;;;;5014649;28;20335;-88
2022/12/01 05:10:24;;;;;;;;;;;11.30;62.80;;;;;;5014580;28;19972;-88
2022/12/01 05:12:49;;;;;;;;;;;11.30;62.90;;;;;;5014214;28;19927;-87
2022/12/01 05:15:15;;;;;;;;;;;11.30;62.90;;;;;;5014508;28;19959;-89
2022/12/01 05:17:41;;;;;;;;;;;11.30;62.90;;;;;;5013000;28;20022;-87
2022/12/01 05:22:51;;;;;;;;;;;11.40;62.90;;;;;;5031785;28;19920;-88
2022/12/01 05:25:20;;;;;;;;;;;11.30;63.00;;;;;;5013193;28;19917;-90
2022/12/01 05:27:45;;;;;;;;;;;11.30;63.10;;;;;;5012587;28;20012;-87
2022/12/01 05:30:11;;;;;;;;;;;11.30;63.00;;;;;;5013013;28;19992;-87
2022/12/01 05:32:36;;;;;;;;;;;11.30;62.90;;;;;;5012807;28;20068;-87
2022/12/01 05:35:02;;;;;;;;;;;11.30;62.90;;;;;;5018340;28;19996;-89
2022/12/01 05:37:32;;;;;;;;;;;11.30;62.80;;;;;;5012473;28;19917;-89
2022/12/01 05:39:57;;;;;;;;;;;11.30;62.80;;;;;;5014204;28;19960;-89
2022/12/01 05:42:23;;;;;;;;;;;11.30;62.70;;;;;;5022136;28;19932;-89
2022/12/01 05:44:49;;;;;;;;;;;11.30;62.60;;;;;;5012910;28;19917;-89
2022/12/01 05:47:14;;;;;;;;;;;11.30;62.70;;;;;;5029890;28;19921;-87
2022/12/01 05:49:40;;;;;;;;;;;11.20;63.00;;;;;;5017047;28;19923;-88
2022/12/01 05:52:05;;;;;;;;;;;11.20;62.80;;;;;;5012007;28;20454;-88
2022/12/01 05:54:31;;;;;;;;;;;11.30;62.80;;;;;;5009156;28;20279;-87
2022/12/01 05:56:57;;;;;;;;;;;11.20;62.90;;;;;;5008586;28;19924;-87
2022/12/01 05:59:22;;;;;;;;;;;11.30;62.70;;;;;;5032040;28;19921;-88
2022/12/01 06:01:48;;;;;;;;;;;11.30;62.70;;;;;;5030871;28;19921;-90
2022/12/01 06:04:13;;;;;;;;;;;11.20;62.70;;;;;;5034201;28;19917;-90
2022/12/01 06:06:39;;;;;;;;;;;11.20;62.60;;;;;;5016476;28;19917;-89
2022/12/01 06:09:05;;;;;;;;;;;11.20;62.50;;;;;;5033751;28;19960;-88
2022/12/01 06:11:30;;;;;;;;;;;11.20;62.70;;;;;;5015791;28;19925;-89
2022/12/01 06:13:56;;;;;;;;;;;11.20;62.60;;;;;;5033542;28;19917;-87
2022/12/01 06:16:22;;;;;;;;;;;11.20;62.70;;;;;;5039324;28;20238;-87
2022/12/01 06:18:47;;;;;;;;;;;11.20;62.80;;;;;;5016802;28;19920;-90
2022/12/01 06:21:13;;;;;;;;;;;11.20;62.90;;;;;;5015427;28;20288;-91
2022/12/01 06:23:50;;;;;;;;;;;11.20;63.00;;;;;;5015595;28;19928;-87
2022/12/01 06:26:16;;;;;;;;;;;11.20;62.90;;;;;;5032843;28;19921;-90
2022/12/01 06:28:46;;;;;;;;;;;11.20;62.50;;;;;;5015307;28;19917;-88
2022/12/01 06:31:14;;;;;;;;;;;11.10;62.50;;;;;;5015082;28;20065;-89
2022/12/01 06:33:40;;;;;;;;;;;11.10;62.30;;;;;;5015284;28;19921;-88
2022/12/01 06:36:06;;;;;;;;;;;11.10;62.40;;;;;;5015136;28;19913;-88
2022/12/01 06:38:32;;;;;;;;;;;11.00;62.40;;;;;;5031904;28;20000;-87
2022/12/01 06:40:58;;;;;;;;;;;11.00;62.60;;;;;;5014608;28;20000;-89
2022/12/01 06:43:23;;;;;;;;;;;11.00;62.40;;;;;;5031862;28;20406;-87
2022/12/01 06:45:52;;;;;;;;;;;11.00;62.50;;;;;;5015203;28;19913;-90
2022/12/01 06:48:18;;;;;;;;;;;10.90;62.40;;;;;;5032431;28;19927;-88
2022/12/01 06:50:43;;;;;;;;;;;10.90;62.60;;;;;;5014359;28;20012;-90
2022/12/01 06:53:10;;;;;;;;;;;10.90;62.80;;;;;;5014787;28;19932;-88
2022/12/01 06:55:36;;;;;;;;;;;10.90;62.80;;;;;;5011180;28;19921;-90
2022/12/01 06:58:01;;;;;;;;;;;11.00;62.90;;;;;;5013079;28;19913;-87
2022/12/01 07:00:27;;;;;;;;;;;11.00;62.70;;;;;;5033826;28;19917;-90
2022/12/01 07:02:53;;;;;;;;;;;11.00;62.70;;;;;;5014075;28;20504;-88
2022/12/01 07:05:18;;;;;;;;;;;11.00;62.60;;;;;;5013695;28;20018;-90
2022/12/01 07:07:46;;;;;;;;;;;11.00;62.70;;;;;;5029871;28;19917;-90
2022/12/01 07:10:12;;;;;;;;;;;11.00;62.70;;;;;;5011385;28;19940;-87
2022/12/01 07:12:38;;;;;;;;;;;11.00;62.60;;;;;;5014816;28;19918;-86
2022/12/01 07:15:07;;;;;;;;;;;11.00;62.70;;;;;;5030375;28;19921;-89
2022/12/01 07:17:36;;;;;;;;;;;11.00;62.70;;;;;;5012731;28;19917;-89
2022/12/01 07:20:02;;;;;;;;;;;11.00;62.70;;;;;;5013160;28;19917;-88
2022/12/01 07:22:28;;;;;;;;;;;11.00;62.60;;;;;;5031905;28;19909;-87
2022/12/01 07:24:54;;;;;;;;;;;11.00;62.70;;;;;;5031570;28;19921;-86
2022/12/01 07:27:20;;;;;;;;;;;11.00;62.80;;;;;;5014101;28;19963;-87
2022/12/01 07:29:48;;;;;;;;;;;11.10;62.70;;;;;;5012867;28;19925;-88
2022/12/01 07:32:14;;;;;;;;;;;11.00;62.60;;;;;;4994380;28;19925;-88
2022/12/01 07:34:40;;;;;;;;;;;11.10;62.50;;;;;;5022546;28;19917;-86
2022/12/01 07:37:06;;;;;;;;;;;11.00;62.80;;;;;;5034138;28;19913;-86
2022/12/01 07:39:32;;;;;;;;;;;11.10;62.90;;;;;;5034409;28;19921;-89
2022/12/01 07:41:57;;;;;;;;;;;11.10;62.70;;;;;;5032411;28;19909;-89
2022/12/01 07:44:26;;;;;;;;;;;11.10;62.90;;;;;;5013365;28;19971;-87
2022/12/01 07:46:51;;;;;;;;;;;11.10;62.90;;;;;;5013541;28;19917;-90
2022/12/01 07:49:17;;;;;;;;;;;11.20;63.00;;;;;;5013810;28;19920;-90
2022/12/01 07:51:43;;;;;;;;;;;11.20;62.90;;;;;;5030985;28;19952;-89
2022/12/01 07:54:08;;;;;;;;;;;11.20;62.90;;;;;;5014106;28;19932;-87
2022/12/01 07:56:34;;;;;;;;;;;11.20;62.90;;;;;;5014566;28;19909;-88
2022/12/01 07:59:03;;;;;;;;;;;11.20;62.70;;;;;;5031376;28;19934;-91
2022/12/01 08:01:28;;;;;;;;;;;11.30;62.70;;;;;;5032418;28;20338;-89
2022/12/01 08:03:55;;;;;;;;;;;11.30;62.60;;;;;;5014541;28;19909;-87
2022/12/01 08:06:21;;;;;;;;;;;11.20;62.70;;;;;;5014143;28;19917;-87
2022/12/01 08:08:47;;;;;;;;;;;11.30;62.70;;;;;;5031403;28;19953;-86
2022/12/01 08:11:14;;;;;;;;;;;11.30;62.50;;;;;;5031841;28;20513;-88
2022/12/01 08:13:40;;;;;;;;;;;11.30;62.60;;;;;;5033201;28;20279;-86
2022/12/01 08:16:07;;;;;;;;;;;11.30;62.60;;;;;;5011003;28;19924;-89
2022/12/01 08:18:33;;;;;;;;;;;11.30;62.50;;;;;;5004943;28;20011;-89
2022/12/01 08:20:59;;;;;;;;;;;11.30;62.40;;;;;;5031484;28;19917;-89
2022/12/01 08:23:24;;;;;;;;;;;11.30;62.40;;;;;;5032935;28;20016;-87
2022/12/01 08:25:51;;;;;;;;;;;11.30;62.50;;;;;;5014100;28;20364;-88
2022/12/01 08:28:17;;;;;;;;;;;11.30;62.60;;;;;;5014453;28;19916;-87
2022/12/01 08:30:43;;;;;;;;;;;11.40;62.80;;;;;;5013647;28;19928;-90
2022/12/01 08:33:08;;;;;;;;;;;11.40;62.50;;;;;;5014431;28;20304;-89
2022/12/01 08:35:35;;;;;;;;;;;11.40;62.70;;;;;;5031158;28;19925;-87
2022/12/01 08:38:00;;;;;;;;;;;11.40;62.60;;;;;;5011014;28;20388;-88
2022/12/01 08:40:29;;;;;;;;;;;11.40;62.50;;;;;;5023910;28;20381;-88
2022/12/01 08:42:55;;;;;;;;;;;11.40;62.50;;;;;;5020722;28;20334;-87
2022/12/01 08:45:21;;;;;;;;;;;11.50;62.50;;;;;;5030733;28;20522;-90
2022/12/01 08:47:47;;;;;;;;;;;11.50;62.60;;;;;;5010225;28;20296;-89
2022/12/01 08:50:13;;;;;;;;;;;11.60;62.60;;;;;;5009440;28;20284;-89
2022/12/01 08:52:39;;;;;;;;;;;11.60;62.70;;;;;;5017969;28;20425;-89
2022/12/01 08:55:06;;;;;;;;;;;11.60;62.60;;;;;;5034179;28;20341;-87
2022/12/01 08:57:32;;;;;;;;;;;11.60;62.30;;;;;;5027438;28;20282;-87
2022/12/01 08:59:58;;;;;;;;;;;11.60;62.30;;;;;;5027449;28;19921;-88
2022/12/01 09:02:24;;;;;;;;;;;11.70;62.70;;;;;;5010763;28;20007;-87
2022/12/01 09:04:49;;;;;;;;;;;11.70;62.70;;;;;;5027231;28;19952;-87
2022/12/01 09:07:15;;;;;;;;;;;11.70;62.60;;;;;;5009684;28;20011;-86
2022/12/01 09:09:42;;;;;;;;;;;11.70;62.60;;;;;;5027802;28;19921;-89
2022/12/01 09:12:08;;;;;;;;;;;11.70;62.50;;;;;;5027396;28;19929;-87
2022/12/01 09:14:40;;;;;;;;;;;11.80;62.60;;;;;;5027436;28;19927;-88
2022/12/01 09:17:06;;;;;;;;;;;11.80;62.50;;;;;;5008930;28;19925;-89
2022/12/01 09:19:32;;;;;;;;;;;11.80;62.50;;;;;;5009057;28;19922;-89
2022/12/01 09:21:58;;;;;;;;;;;11.80;62.60;;;;;;5006448;28;20407;-89
2022/12/01 09:24:26;;;;;;;;;;;11.80;62.50;;;;;;5008350;28;19925;-89
2022/12/01 09:26:55;;;;;;;;;;;11.90;62.50;;;;;;5024681;28;19924;-88
2022/12/01 09:29:21;;;;;;;;;;;11.90;62.10;;;;;;5027519;28;19917;-89
2022/12/01 09:31:46;;;;;;;;;;;11.90;62.10;;;;;;5009426;28;19933;-91
2022/12/01 09:34:13;;;;;;;;;;;11.80;61.80;;;;;;5034801;28;19960;-87
2022/12/01 09:36:39;;;;;;;;;;;11.80;62.10;;;;;;5028693;28;19971;-87
2022/12/01 09:39:05;;;;;;;;;;;11.80;62.10;;;;;;5014156;28;19960;-89
2022/12/01 09:41:31;;;;;;;;;;;11.80;62.10;;;;;;5031271;28;19924;-88
2022/12/01 09:44:09;;;;;;;;;;;11.80;61.90;;;;;;5012978;28;20431;-89
2022/12/01 09:46:54;;;;;;;;;;;11.80;61.90;;;;;;5025192;28;20680;-90
2022/12/01 09:49:22;;;;;;;;;;;11.80;62.00;;;;;;5013415;28;19992;-89
2022/12/01 09:51:48;;;;;;;;;;;11.80;62.00;;;;;;5014186;28;19925;-88
2022/12/01 09:54:14;;;;;;;;;;;11.80;62.20;;;;;;5046023;28;19917;-88
2022/12/01 09:57:09;;;;;;;;;;;11.80;62.20;;;;;;5030759;28;19917;-89
2022/12/01 09:59:39;;;;;;;;;;;11.80;62.10;;;;;;5007175;28;20269;-87
2022/12/01 10:02:12;;;;;;;;;;;11.80;62.20;;;;;;5013541;28;19917;-90
2022/12/01 10:04:43;;;;;;;;;;;11.80;62.10;;;;;;5013281;28;20302;-90
2022/12/01 10:07:09;;;;;;;;;;;11.80;62.40;;;;;;5030677;28;19925;-89
2022/12/01 10:09:53;;;;;;;;;;;11.90;62.40;;;;;;5013074;28;19991;-87
2022/12/01 10:12:21;;;;;;;;;;;11.90;62.40;;;;;;5013285;28;19925;-86
2022/12/01 10:14:47;;;;;;;;;;;12.00;62.30;;;;;;5032119;28;19924;-90
2022/12/01 10:17:31;;;;;;;;;;;12.00;62.20;;;;;;5011136;28;20245;-89
2022/12/01 10:20:01;;;;;;;;;;;12.00;62.20;;;;;;5012350;28;19921;-89
2022/12/01 10:22:26;;;;;;;;;;;12.10;62.00;;;;;;5030432;28;19917;-87
2022/12/01 10:25:34;;;;;;;;;;;;;;;;;;;;;
2022/12/01 10:28:20;;;;;;;;;;;12.20;61.70;;;;;;4969948;28;19921;-86
2022/12/01 10:30:49;;;;;;;;;;;12.20;61.50;;;;;;5006671;28;19920;-90
2022/12/01 10:33:21;;;;;;;;;;;12.20;61.30;;;;;;5020431;28;20529;-88
2022/12/01 10:35:46;;;;;;;;;;;12.20;61.50;;;;;;5039998;28;20071;-90
2022/12/01 10:38:24;;;;;;;;;;;12.20;61.40;;;;;;5011049;28;20376;-88
2022/12/01 10:40:50;;;;;;;;;;;12.20;61.60;;;;;;5029427;28;19928;-87
2022/12/01 10:43:16;;;;;;;;;;;12.20;61.70;;;;;;5011738;28;19927;-87
2022/12/01 10:45:58;;;;;;;;;;;12.20;61.50;;;;;;5008556;28;20660;-89
2022/12/01 10:48:24;;;;;;;;;;;12.30;61.20;;;;;;5007420;28;19926;-87
2022/12/01 10:50:53;;;;;;;;;;;12.30;61.80;;;;;;5028151;28;19923;-87
2022/12/01 10:53:28;;;;;;;;;;;12.30;61.90;;;;;;5009542;28;19935;-87
2022/12/01 10:56:32;;;;;;;;;;;12.40;62.00;;;;;;5011610;28;19917;-89
2022/12/01 10:59:27;;;;;;;;;;;12.50;62.10;;;;;;4871278;28;19921;-89
2022/12/01 11:01:53;;;;;;;;;;;12.60;61.60;;;;;;4990903;28;19985;-88
2022/12/01 11:04:27;;;;;;;;;;;12.60;60.80;;;;;;5019109;28;19917;-89
2022/12/01 11:06:53;;;;;;;;;;;12.50;60.60;;;;;;5030934;28;19921;-89
2022/12/01 11:09:20;;;;;;;;;;;12.50;60.60;;;;;;5013077;28;19917;-87
2022/12/01 11:11:53;;;;;;;;;;;12.50;60.80;;;;;;5029628;28;19922;-88
2022/12/01 11:14:23;;;;;;;;;;;12.40;60.80;;;;;;5011584;28;19917;-90
2022/12/01 11:17:09;;;;;;;;;;;12.40;61.00;;;;;;5030016;28;20028;-89
2022/12/01 11:19:35;;;;;;;;;;;12.40;60.60;;;;;;5013873;28;19976;-88
2022/12/01 11:22:04;;;;;;;;;;;12.30;60.80;;;;;;5024452;28;20109;-86
2022/12/01 11:24:43;;;;;;;;;;;12.30;61.30;;;;;;5011351;28;19917;-88
2022/12/01 11:27:13;;;;;;;;;;;12.30;61.20;;;;;;5028682;28;19920;-89
2022/12/01 11:29:39;;;;;;;;;;;12.30;60.90;;;;;;5011771;28;19917;-89
2022/12/01 11:32:25;;;;;;;;;;;12.30;61.00;;;;;;5005043;28;19929;-87
2022/12/01 11:35:26;;;;;;;;;;;12.30;61.00;;;;;;5032825;28;19987;-89
2022/12/01 11:37:55;;;;;;;;;;;12.30;61.00;;;;;;4986202;28;19924;-89
2022/12/01 11:43:31;;;;;;;;;;;12.20;60.70;;;;;;5013911;23;19933;-88
2022/12/01 11:45:59;;;;;;;;;;;12.20;60.40;;;;;;5006586;28;20032;-88
2022/12/01 11:48:27;;;;;;;;;;;12.20;60.40;;;;;;5004931;28;20200;-88
2022/12/01 11:51:11;;;;;;;;;;;12.20;60.70;;;;;;5003009;28;19917;-90
2022/12/01 11:53:38;;;;;;;;;;;12.20;60.70;;;;;;4991206;28;19934;-88
2022/12/01 11:56:21;;;;;;;;;;;12.20;60.70;;;;;;4985146;28;19920;-89
2022/12/01 11:58:47;;;;;;;;;;;12.20;60.80;;;;;;4990680;28;19924;-89
2022/12/01 12:01:31;;;;;;;;;;;12.20;61.20;;;;;;4986389;28;19918;-88
2022/12/01 12:04:02;;;;;;;;;;;12.30;61.00;;;;;;4983905;28;20286;-88
2022/12/01 12:06:40;;;;;;;;;;;12.30;60.60;;;;;;4996279;28;19921;-87
2022/12/01 12:09:14;;;;;;;;;;;12.30;60.50;;;;;;4998112;28;20037;-88
2022/12/01 12:11:40;;;;;;;;;;;12.30;60.70;;;;;;4988933;28;19926;-88
2022/12/01 12:14:05;;;;;;;;;;;12.30;60.40;;;;;;4989628;28;19920;-87
2022/12/01 12:16:57;;;;;;;;;;;12.30;59.90;;;;;;4991170;28;19922;-86
2022/12/01 12:19:29;;;;;;;;;;;12.20;60.10;;;;;;4973807;28;20398;-89
2022/12/01 12:21:54;;;;;;;;;;;12.20;60.40;;;;;;4997680;28;20793;-88
2022/12/01 12:24:22;;;;;;;;;;;12.10;60.10;;;;;;5011547;28;19914;-89
2022/12/01 12:26:47;;;;;;;;;;;12.10;60.10;;;;;;4977502;28;19988;-87
2022/12/01 12:29:42;;;;;;;;;;;12.00;60.00;;;;;;4994726;28;19922;-88
2022/12/01 12:32:27;;;;;;;;;;;12.00;60.10;;;;;;4965958;28;19936;-90
2022/12/01 12:35:11;;;;;;;;;;;12.00;60.40;;;;;;4982225;28;19925;-88
2022/12/01 12:37:46;;;;;;;;;;;11.90;60.40;;;;;;4995520;28;19928;-90
2022/12/01 12:40:27;;;;;;;;;;;11.80;59.90;;;;;;4998542;28;19921;-90
2022/12/01 12:46:00;;;;;;;;;;;11.80;60.60;;;;;;5007958;28;19967;-90
2022/12/01 12:48:29;;;;;;;;;;;11.70;60.50;;;;;;5007979;28;19956;-89
2022/12/01 12:51:01;;;;;;;;;;;11.70;60.40;;;;;;4978907;28;19918;-89
2022/12/01 12:53:30;;;;;;;;;;;11.70;60.20;;;;;;4989456;28;19933;-88
2022/12/01 12:56:01;;;;;;;;;;;11.60;59.80;;;;;;4990137;28;19914;-89
2022/12/01 12:58:29;;;;;;;;;;;11.60;60.20;;;;;;4986074;28;19984;-87
2022/12/01 13:01:02;;;;;;;;;;;11.60;60.40;;;;;;5009103;28;19913;-90
2022/12/01 13:03:34;;;;;;;;;;;11.60;60.60;;;;;;4985899;28;19929;-87
2022/12/01 13:06:03;;;;;;;;;;;11.60;60.80;;;;;;5008772;28;20044;-89
2022/12/01 13:08:34;;;;;;;;;;;11.70;60.60;;;;;;4987182;28;19944;-89
2022/12/01 13:11:14;;;;;;;;;;;11.70;60.40;;;;;;5003554;28;19992;-88
2022/12/01 13:13:56;;;;;;;;;;;11.70;60.00;;;;;;4994695;28;19929;-88
2022/12/01 13:16:24;;;;;;;;;;;11.70;60.10;;;;;;4995074;28;19980;-89
2022/12/01 13:18:54;;;;;;;;;;;11.70;60.40;;;;;;4990937;28;19924;-88
2022/12/01 13:21:20;;;;;;;;;;;11.70;60.30;;;;;;4974118;28;20324;-88
2022/12/01 13:23:47;;;;;;;;;;;11.70;60.00;;;;;;4989241;28;19948;-88
2022/12/01 13:26:15;;;;;;;;;;;11.70;60.40;;;;;;4990628;28;19922;-87
2022/12/01 13:29:01;;;;;;;;;;;11.70;60.60;;;;;;5008062;28;19983;-88
2022/12/01 13:31:27;;;;;;;;;;;11.70;60.00;;;;;;4990486;28;20403;-89
2022/12/01 13:33:57;;;;;;;;;;;11.70;59.80;;;;;;5015852;28;19921;-88
2022/12/01 13:36:23;;;;;;;;;;;11.70;59.90;;;;;;4988301;28;20592;-89
2022/12/01 13:38:55;;;;;;;;;;;11.70;60.10;;;;;;4988151;28;20045;-87
2022/12/01 13:41:51;;;;;;;;;;;11.70;60.10;;;;;;4979513;28;20254;-89
2022/12/01 13:44:15;;;;;;;;;;;11.60;60.10;;;;;;5007098;28;19928;-87
2022/12/01 13:46:51;;;;;;;;;;;11.60;59.50;;;;;;5001327;28;20157;-87
2022/12/01 13:49:38;;;;;;;;;;;11.50;59.40;;;;;;4997312;28;20441;-89
2022/12/01 13:52:22;;;;;;;;;;;11.40;59.30;;;;;;4988997;28;19937;-89
2022/12/01 13:55:18;;;;;;;;;;;11.30;59.20;;;;;;4974790;28;19918;-88
2022/12/01 13:58:19;;;;;;;;;;;11.20;59.20;;;;;;4983090;28;19929;-89
2022/12/01 14:00:56;;;;;;;;;;;11.20;59.70;;;;;;4979291;28;20017;-89
2022/12/01 14:03:22;;;;;;;;;;;11.10;59.80;;;;;;4996589;28;19944;-88
2022/12/01 14:05:56;;;;;;;;;;;11.20;60.30;;;;;;5000555;28;19917;-89
2022/12/01 14:08:40;;;;;;;;;;;11.20;59.80;;;;;;4999424;28;19922;-88
2022/12/01 14:11:14;;;;;;;;;;;11.20;59.80;;;;;;4988370;28;19914;-88
2022/12/01 14:13:51;;;;;;;;;;;11.10;59.80;;;;;;4982452;28;19926;-88
2022/12/01 14:16:16;;;;;;;;;;;11.10;59.80;;;;;;4992501;28;19917;-87
2022/12/01 14:18:48;;;;;;;;;;;11.10;60.30;;;;;;4981290;28;19925;-89
2022/12/01 14:21:14;;;;;;;;;;;11.10;60.30;;;;;;4975772;28;19917;-90
2022/12/01 14:23:58;;;;;;;;;;;11.10;60.00;;;;;;4984782;28;19924;-89
2022/12/01 14:26:24;;;;;;;;;;;11.10;60.10;;;;;;4992733;28;20411;-89
2022/12/01 14:28:58;;;;;;;;;;;11.10;59.80;;;;;;5003488;28;20004;-88
2022/12/01 14:31:45;;;;;;;;;;;11.10;59.90;;;;;;4982330;28;20977;-89
2022/12/01 14:34:17;;;;;;;;;;;11.00;59.60;;;;;;4995172;28;20367;-88
2022/12/01 14:36:50;;;;;;;;;;;11.00;59.60;;;;;;5016942;28;20311;-87
2022/12/01 14:39:21;;;;;;;;;;;10.90;59.50;;;;;;5011164;28;19913;-88
2022/12/01 14:41:51;;;;;;;;;;;10.80;59.60;;;;;;4988764;28;20373;-88
2022/12/01 14:44:25;;;;;;;;;;;10.90;59.90;;;;;;4998397;28;19925;-89
2022/12/01 14:46:58;;;;;;;;;;;10.80;59.70;;;;;;5001234;28;20316;-88